sensor_id;sensor_type;location;lat;lon;timestamp;temperature;humidity
30244;DHT22;64022;53.652;9.792;2024-02-04T00:02:16;22.00;59.50
30244;DHT22;64022;53.652;9.792;2024-02-04T00:04:42;22.00;59.40
30244;DHT22;64022;53.652;9.792;2024-02-04T00:07:08;22.00;59.40
30244;DHT22;64022;53.652;9.792;2024-02-04T00:09:35;22.00;59.50
30244;DHT22;64022;53.652;9.792;2024-02-04T00:12:01;22.00;59.60
30244;DHT22;64022;53.652;9.792;2024-02-04T00:14:32;22.00;59.50
30244;DHT22;64022;53.652;9.792;2024-02-04T00:16:58;22.00;59.40
30244;DHT22;64022;53.652;9.792;2024-02-04T00:19:25;22.00;59.60
30244;DHT22;64022;53.652;9.792;2024-02-04T00:21:53;22.00;59.50
30244;DHT22;64022;53.652;9.792;2024-02-04T00:24:21;22.00;59.50
30244;DHT22;64022;53.652;9.792;2024-02-04T00:26:49;22.00;59.40
30244;DHT22;64022;53.652;9.792;2024-02-04T00:29:15;22.10;59.40
30244;DHT22;64022;53.652;9.792;2024-02-04T00:31:41;22.10;59.50
30244;DHT22;64022;53.652;9.792;2024-02-04T00:34:08;22.00;59.50
30244;DHT22;64022;53.652;9.792;2024-02-04T00:36:33;22.00;59.40
30244;DHT22;64022;53.652;9.792;2024-02-04T00:39:00;22.10;59.50
30244;DHT22;64022;53.652;9.792;2024-02-04T00:41:26;22.10;59.50
30244;DHT22;64022;53.652;9.792;2024-02-04T00:43:55;22.00;59.50
30244;DHT22;64022;53.652;9.792;2024-02-04T00:46:21;22.10;59.50
30244;DHT22;64022;53.652;9.792;2024-02-04T00:48:48;22.00;59.50
30244;DHT22;64022;53.652;9.792;2024-02-04T00:51:16;22.00;59.40
30244;DHT22;64022;53.652;9.792;2024-02-04T00:53:43;22.00;59.40
30244;DHT22;64022;53.652;9.792;2024-02-04T00:56:11;22.00;59.30
30244;DHT22;64022;53.652;9.792;2024-02-04T00:58:38;22.10;59.40
30244;DHT22;64022;53.652;9.792;2024-02-04T01:01:07;22.00;59.40
30244;DHT22;64022;53.652;9.792;2024-02-04T01:03:33;22.10;59.40
30244;DHT22;64022;53.652;9.792;2024-02-04T01:05:59;22.10;59.30
30244;DHT22;64022;53.652;9.792;2024-02-04T01:08:26;22.10;59.40
30244;DHT22;64022;53.652;9.792;2024-02-04T01:10:51;22.10;59.40
30244;DHT22;64022;53.652;9.792;2024-02-04T01:13:19;22.00;59.20
30244;DHT22;64022;53.652;9.792;2024-02-04T01:15:51;22.10;59.40
30244;DHT22;64022;53.652;9.792;2024-02-04T01:18:17;22.00;59.30
30244;DHT22;64022;53.652;9.792;2024-02-04T01:20:44;22.00;59.30
30244;DHT22;64022;53.652;9.792;2024-02-04T01:23:10;22.10;59.40
30244;DHT22;64022;53.652;9.792;2024-02-04T01:25:38;22.10;59.50
30244;DHT22;64022;53.652;9.792;2024-02-04T01:28:08;22.10;59.50
30244;DHT22;64022;53.652;9.792;2024-02-04T01:30:34;22.00;59.30
30244;DHT22;64022;53.652;9.792;2024-02-04T01:33:02;22.10;59.40
30244;DHT22;64022;53.652;9.792;2024-02-04T01:35:30;22.00;59.40
30244;DHT22;64022;53.652;9.792;2024-02-04T01:37:57;22.10;59.40
30244;DHT22;64022;53.652;9.792;2024-02-04T01:40:25;22.10;59.40
30244;DHT22;64022;53.652;9.792;2024-02-04T01:42:52;22.10;59.30
30244;DHT22;64022;53.652;9.792;2024-02-04T01:45:19;22.10;59.40
30244;DHT22;64022;53.652;9.792;2024-02-04T01:47:46;22.10;59.40
30244;DHT22;64022;53.652;9.792;2024-02-04T01:50:12;22.10;59.40
30244;DHT22;64022;53.652;9.792;2024-02-04T01:52:39;22.10;59.50
30244;DHT22;64022;53.652;9.792;2024-02-04T01:55:05;22.00;59.40
30244;DHT22;64022;53.652;9.792;2024-02-04T01:57:31;22.10;59.40
30244;DHT22;64022;53.652;9.792;2024-02-04T01:59:58;22.10;59.30
30244;DHT22;64022;53.652;9.792;2024-02-04T02:02:27;22.10;59.40
30244;DHT22;64022;53.652;9.792;2024-02-04T02:04:54;22.10;59.30
30244;DHT22;64022;53.652;9.792;2024-02-04T02:07:26;22.10;59.40
30244;DHT22;64022;53.652;9.792;2024-02-04T02:09:53;22.10;59.20
30244;DHT22;64022;53.652;9.792;2024-02-04T02:12:25;22.10;59.30
30244;DHT22;64022;53.652;9.792;2024-02-04T02:15:01;22.10;59.30
30244;DHT22;64022;53.652;9.792;2024-02-04T02:17:33;22.10;59.30
30244;DHT22;64022;53.652;9.792;2024-02-04T02:20:12;22.10;59.40
30244;DHT22;64022;53.652;9.792;2024-02-04T02:22:49;22.10;59.30
30244;DHT22;64022;53.652;9.792;2024-02-04T02:25:21;22.10;59.30
30244;DHT22;64022;53.652;9.792;2024-02-04T02:27:52;22.10;59.30
30244;DHT22;64022;53.652;9.792;2024-02-04T02:30:18;22.10;59.30
30244;DHT22;64022;53.652;9.792;2024-02-04T02:32:45;22.10;59.40
30244;DHT22;64022;53.652;9.792;2024-02-04T02:35:12;22.10;59.40
30244;DHT22;64022;53.652;9.792;2024-02-04T02:37:46;22.10;59.40
30244;DHT22;64022;53.652;9.792;2024-02-04T02:42:46;22.10;59.40
30244;DHT22;64022;53.652;9.792;2024-02-04T02:45:13;22.10;59.40
30244;DHT22;64022;53.652;9.792;2024-02-04T02:47:41;22.10;59.20
30244;DHT22;64022;53.652;9.792;2024-02-04T02:50:07;22.20;59.40
30244;DHT22;64022;53.652;9.792;2024-02-04T02:52:36;22.10;59.30
30244;DHT22;64022;53.652;9.792;2024-02-04T02:55:02;22.10;59.30
30244;DHT22;64022;53.652;9.792;2024-02-04T02:57:30;22.10;59.40
30244;DHT22;64022;53.652;9.792;2024-02-04T02:59:58;22.20;59.40
30244;DHT22;64022;53.652;9.792;2024-02-04T03:02:24;22.20;59.40
30244;DHT22;64022;53.652;9.792;2024-02-04T03:04:52;22.20;59.40
30244;DHT22;64022;53.652;9.792;2024-02-04T03:07:18;22.20;59.40
30244;DHT22;64022;53.652;9.792;2024-02-04T03:09:47;22.20;59.30
30244;DHT22;64022;53.652;9.792;2024-02-04T03:12:14;22.10;59.30
30244;DHT22;64022;53.652;9.792;2024-02-04T03:14:40;22.20;59.30
30244;DHT22;64022;53.652;9.792;2024-02-04T03:17:07;22.20;59.40
30244;DHT22;64022;53.652;9.792;2024-02-04T03:19:33;22.20;59.30
30244;DHT22;64022;53.652;9.792;2024-02-04T03:22:01;22.20;59.40
30244;DHT22;64022;53.652;9.792;2024-02-04T03:24:27;22.20;59.30
30244;DHT22;64022;53.652;9.792;2024-02-04T03:26:53;22.20;59.30
30244;DHT22;64022;53.652;9.792;2024-02-04T03:29:21;22.20;59.20
30244;DHT22;64022;53.652;9.792;2024-02-04T03:31:49;22.20;59.20
30244;DHT22;64022;53.652;9.792;2024-02-04T03:34:16;22.20;59.30
30244;DHT22;64022;53.652;9.792;2024-02-04T03:36:43;22.20;59.30
30244;DHT22;64022;53.652;9.792;2024-02-04T03:39:10;22.20;59.20
30244;DHT22;64022;53.652;9.792;2024-02-04T03:41:37;22.20;59.20
30244;DHT22;64022;53.652;9.792;2024-02-04T03:44:05;22.20;59.10
30244;DHT22;64022;53.652;9.792;2024-02-04T03:46:33;22.20;59.10
30244;DHT22;64022;53.652;9.792;2024-02-04T03:49:01;22.20;59.20
30244;DHT22;64022;53.652;9.792;2024-02-04T03:51:27;22.20;59.20
30244;DHT22;64022;53.652;9.792;2024-02-04T03:53:56;22.20;59.10
30244;DHT22;64022;53.652;9.792;2024-02-04T03:56:24;22.20;59.00
30244;DHT22;64022;53.652;9.792;2024-02-04T03:58:52;22.20;59.00
30244;DHT22;64022;53.652;9.792;2024-02-04T04:01:18;22.20;59.10
30244;DHT22;64022;53.652;9.792;2024-02-04T04:03:47;22.20;59.10
30244;DHT22;64022;53.652;9.792;2024-02-04T04:06:13;22.20;59.10
30244;DHT22;64022;53.652;9.792;2024-02-04T04:08:39;22.20;59.10
30244;DHT22;64022;53.652;9.792;2024-02-04T04:11:09;22.20;59.10
30244;DHT22;64022;53.652;9.792;2024-02-04T04:13:35;22.20;59.20
30244;DHT22;64022;53.652;9.792;2024-02-04T04:16:03;22.20;59.10
30244;DHT22;64022;53.652;9.792;2024-02-04T04:18:29;22.20;59.10
30244;DHT22;64022;53.652;9.792;2024-02-04T04:20:59;22.20;59.30
30244;DHT22;64022;53.652;9.792;2024-02-04T04:23:26;22.20;59.30
30244;DHT22;64022;53.652;9.792;2024-02-04T04:25:53;22.20;59.30
30244;DHT22;64022;53.652;9.792;2024-02-04T04:28:21;22.20;59.30
30244;DHT22;64022;53.652;9.792;2024-02-04T04:30:48;22.20;59.30
30244;DHT22;64022;53.652;9.792;2024-02-04T04:33:14;22.20;59.30
30244;DHT22;64022;53.652;9.792;2024-02-04T04:35:40;22.20;59.30
30244;DHT22;64022;53.652;9.792;2024-02-04T04:38:06;22.20;59.20
30244;DHT22;64022;53.652;9.792;2024-02-04T04:40:32;22.20;59.20
30244;DHT22;64022;53.652;9.792;2024-02-04T04:42:59;22.20;59.10
30244;DHT22;64022;53.652;9.792;2024-02-04T04:45:26;22.20;59.30
30244;DHT22;64022;53.652;9.792;2024-02-04T04:47:54;22.20;59.10
30244;DHT22;64022;53.652;9.792;2024-02-04T04:50:21;22.20;59.10
30244;DHT22;64022;53.652;9.792;2024-02-04T04:52:50;22.20;59.00
30244;DHT22;64022;53.652;9.792;2024-02-04T04:55:16;22.20;59.10
30244;DHT22;64022;53.652;9.792;2024-02-04T04:57:48;22.20;59.00
30244;DHT22;64022;53.652;9.792;2024-02-04T05:00:15;22.20;59.10
30244;DHT22;64022;53.652;9.792;2024-02-04T05:02:41;22.20;59.10
30244;DHT22;64022;53.652;9.792;2024-02-04T05:05:11;22.20;59.10
30244;DHT22;64022;53.652;9.792;2024-02-04T05:07:39;22.20;59.00
30244;DHT22;64022;53.652;9.792;2024-02-04T05:10:06;22.20;59.20
30244;DHT22;64022;53.652;9.792;2024-02-04T05:12:33;22.20;59.10
30244;DHT22;64022;53.652;9.792;2024-02-04T05:15:00;22.20;59.10
30244;DHT22;64022;53.652;9.792;2024-02-04T05:17:26;22.20;59.10
30244;DHT22;64022;53.652;9.792;2024-02-04T05:19:53;22.20;59.20
30244;DHT22;64022;53.652;9.792;2024-02-04T05:22:19;22.20;59.10
30244;DHT22;64022;53.652;9.792;2024-02-04T05:24:48;22.20;59.10
30244;DHT22;64022;53.652;9.792;2024-02-04T05:27:14;22.20;59.20
30244;DHT22;64022;53.652;9.792;2024-02-04T05:29:40;22.20;59.30
30244;DHT22;64022;53.652;9.792;2024-02-04T05:32:07;22.20;59.20
30244;DHT22;64022;53.652;9.792;2024-02-04T05:34:34;22.20;59.00
30244;DHT22;64022;53.652;9.792;2024-02-04T05:37:00;22.30;59.00
30244;DHT22;64022;53.652;9.792;2024-02-04T05:39:26;22.20;59.00
30244;DHT22;64022;53.652;9.792;2024-02-04T05:41:53;22.20;59.00
30244;DHT22;64022;53.652;9.792;2024-02-04T05:44:19;22.30;59.10
30244;DHT22;64022;53.652;9.792;2024-02-04T05:46:46;22.30;59.10
30244;DHT22;64022;53.652;9.792;2024-02-04T05:49:12;22.20;59.00
30244;DHT22;64022;53.652;9.792;2024-02-04T05:51:38;22.30;59.10
30244;DHT22;64022;53.652;9.792;2024-02-04T05:54:07;22.20;58.90
30244;DHT22;64022;53.652;9.792;2024-02-04T05:56:34;22.30;59.00
30244;DHT22;64022;53.652;9.792;2024-02-04T05:59:00;22.30;59.00
30244;DHT22;64022;53.652;9.792;2024-02-04T06:01:28;22.20;58.90
30244;DHT22;64022;53.652;9.792;2024-02-04T06:03:54;22.30;59.10
30244;DHT22;64022;53.652;9.792;2024-02-04T06:06:28;22.30;59.00
30244;DHT22;64022;53.652;9.792;2024-02-04T06:08:56;22.30;59.10
30244;DHT22;64022;53.652;9.792;2024-02-04T06:11:23;22.30;59.00
30244;DHT22;64022;53.652;9.792;2024-02-04T06:13:51;22.30;59.00
30244;DHT22;64022;53.652;9.792;2024-02-04T06:16:19;22.30;59.00
30244;DHT22;64022;53.652;9.792;2024-02-04T06:18:45;22.30;58.90
30244;DHT22;64022;53.652;9.792;2024-02-04T06:21:13;22.30;58.80
30244;DHT22;64022;53.652;9.792;2024-02-04T06:23:41;22.30;58.80
30244;DHT22;64022;53.652;9.792;2024-02-04T06:26:07;22.30;59.00
30244;DHT22;64022;53.652;9.792;2024-02-04T06:28:33;22.30;59.00
30244;DHT22;64022;53.652;9.792;2024-02-04T06:30:59;22.30;59.00
30244;DHT22;64022;53.652;9.792;2024-02-04T06:33:27;22.20;58.00
30244;DHT22;64022;53.652;9.792;2024-02-04T06:35:59;22.10;56.20
30244;DHT22;64022;53.652;9.792;2024-02-04T06:38:30;21.80;54.90
30244;DHT22;64022;53.652;9.792;2024-02-04T06:40:59;21.60;54.20
30244;DHT22;64022;53.652;9.792;2024-02-04T06:43:33;21.40;54.60
30244;DHT22;64022;53.652;9.792;2024-02-04T06:46:04;21.30;55.10
30244;DHT22;64022;53.652;9.792;2024-02-04T06:48:30;21.30;56.00
30244;DHT22;64022;53.652;9.792;2024-02-04T06:50:58;21.30;55.90
30244;DHT22;64022;53.652;9.792;2024-02-04T06:53:23;21.40;56.40
30244;DHT22;64022;53.652;9.792;2024-02-04T06:55:49;21.40;56.00
30244;DHT22;64022;53.652;9.792;2024-02-04T06:58:15;21.40;56.10
30244;DHT22;64022;53.652;9.792;2024-02-04T07:00:42;21.50;56.10
30244;DHT22;64022;53.652;9.792;2024-02-04T07:03:09;21.50;56.20
30244;DHT22;64022;53.652;9.792;2024-02-04T07:05:37;21.50;56.10
30244;DHT22;64022;53.652;9.792;2024-02-04T07:08:05;21.60;56.30
30244;DHT22;64022;53.652;9.792;2024-02-04T07:10:31;21.60;56.30
30244;DHT22;64022;53.652;9.792;2024-02-04T07:12:58;21.60;56.40
30244;DHT22;64022;53.652;9.792;2024-02-04T07:15:25;21.60;56.50
30244;DHT22;64022;53.652;9.792;2024-02-04T07:17:54;21.70;56.50
30244;DHT22;64022;53.652;9.792;2024-02-04T07:20:21;21.70;56.40
30244;DHT22;64022;53.652;9.792;2024-02-04T07:22:48;21.70;56.30
30244;DHT22;64022;53.652;9.792;2024-02-04T07:25:15;21.70;56.50
30244;DHT22;64022;53.652;9.792;2024-02-04T07:27:41;21.70;56.50
30244;DHT22;64022;53.652;9.792;2024-02-04T07:30:08;21.80;56.40
30244;DHT22;64022;53.652;9.792;2024-02-04T07:32:35;21.70;55.50
30244;DHT22;64022;53.652;9.792;2024-02-04T07:35:02;21.50;50.50
30244;DHT22;64022;53.652;9.792;2024-02-04T07:37:31;21.30;50.20
30244;DHT22;64022;53.652;9.792;2024-02-04T07:39:59;21.10;49.60
30244;DHT22;64022;53.652;9.792;2024-02-04T07:42:26;21.00;50.10
30244;DHT22;64022;53.652;9.792;2024-02-04T07:44:52;21.00;50.50
30244;DHT22;64022;53.652;9.792;2024-02-04T07:47:19;21.00;50.80
30244;DHT22;64022;53.652;9.792;2024-02-04T07:49:51;21.10;51.10
30244;DHT22;64022;53.652;9.792;2024-02-04T07:52:18;21.10;51.20
30244;DHT22;64022;53.652;9.792;2024-02-04T07:54:46;21.20;51.30
30244;DHT22;64022;53.652;9.792;2024-02-04T07:57:14;21.30;51.50
30244;DHT22;64022;53.652;9.792;2024-02-04T07:59:40;21.30;51.50
30244;DHT22;64022;53.652;9.792;2024-02-04T08:02:07;21.40;51.60
30244;DHT22;64022;53.652;9.792;2024-02-04T08:04:33;21.40;51.60
30244;DHT22;64022;53.652;9.792;2024-02-04T08:07:00;21.40;51.70
30244;DHT22;64022;53.652;9.792;2024-02-04T08:09:32;21.50;51.80
30244;DHT22;64022;53.652;9.792;2024-02-04T08:11:58;21.50;51.80
30244;DHT22;64022;53.652;9.792;2024-02-04T08:14:24;21.60;51.90
30244;DHT22;64022;53.652;9.792;2024-02-04T08:16:50;21.60;51.90
30244;DHT22;64022;53.652;9.792;2024-02-04T08:19:16;21.60;51.90
30244;DHT22;64022;53.652;9.792;2024-02-04T08:21:43;21.60;52.00
30244;DHT22;64022;53.652;9.792;2024-02-04T08:24:09;21.60;52.00
30244;DHT22;64022;53.652;9.792;2024-02-04T08:26:35;21.70;52.10
30244;DHT22;64022;53.652;9.792;2024-02-04T08:29:04;21.70;52.10
30244;DHT22;64022;53.652;9.792;2024-02-04T08:31:31;21.70;52.10
30244;DHT22;64022;53.652;9.792;2024-02-04T08:33:59;21.70;52.10
30244;DHT22;64022;53.652;9.792;2024-02-04T08:36:25;21.70;52.10
30244;DHT22;64022;53.652;9.792;2024-02-04T08:38:51;21.70;52.10
30244;DHT22;64022;53.652;9.792;2024-02-04T08:41:17;21.80;52.30
30244;DHT22;64022;53.652;9.792;2024-02-04T08:43:48;21.80;52.30
30244;DHT22;64022;53.652;9.792;2024-02-04T08:46:15;21.80;52.30
30244;DHT22;64022;53.652;9.792;2024-02-04T08:48:44;21.80;52.30
30244;DHT22;64022;53.652;9.792;2024-02-04T08:51:10;21.90;52.40
30244;DHT22;64022;53.652;9.792;2024-02-04T08:53:36;21.80;52.30
30244;DHT22;64022;53.652;9.792;2024-02-04T08:56:02;21.90;52.30
30244;DHT22;64022;53.652;9.792;2024-02-04T08:58:28;21.90;52.30
30244;DHT22;64022;53.652;9.792;2024-02-04T09:00:56;21.90;52.40
30244;DHT22;64022;53.652;9.792;2024-02-04T09:03:24;21.90;52.40
30244;DHT22;64022;53.652;9.792;2024-02-04T09:05:51;22.00;52.40
30244;DHT22;64022;53.652;9.792;2024-02-04T09:08:20;22.00;52.50
30244;DHT22;64022;53.652;9.792;2024-02-04T09:10:46;22.00;52.50
30244;DHT22;64022;53.652;9.792;2024-02-04T09:13:14;22.00;52.50
30244;DHT22;64022;53.652;9.792;2024-02-04T09:15:42;22.00;52.50
30244;DHT22;64022;53.652;9.792;2024-02-04T09:18:11;22.00;52.50
30244;DHT22;64022;53.652;9.792;2024-02-04T09:20:40;22.00;52.50
30244;DHT22;64022;53.652;9.792;2024-02-04T09:23:08;22.00;52.50
30244;DHT22;64022;53.652;9.792;2024-02-04T09:25:33;22.10;52.60
30244;DHT22;64022;53.652;9.792;2024-02-04T09:27:59;22.10;52.60
30244;DHT22;64022;53.652;9.792;2024-02-04T09:30:25;22.10;52.60
30244;DHT22;64022;53.652;9.792;2024-02-04T09:32:53;22.10;51.90
30244;DHT22;64022;53.652;9.792;2024-02-04T09:35:19;21.90;49.60
30244;DHT22;64022;53.652;9.792;2024-02-04T09:37:46;21.70;48.10
30244;DHT22;64022;53.652;9.792;2024-02-04T09:40:12;21.50;46.50
30244;DHT22;64022;53.652;9.792;2024-02-04T09:42:39;21.20;45.80
30244;DHT22;64022;53.652;9.792;2024-02-04T09:45:05;21.10;45.60
30244;DHT22;64022;53.652;9.792;2024-02-04T09:47:35;20.90;45.10
30244;DHT22;64022;53.652;9.792;2024-02-04T09:50:03;20.70;44.80
30244;DHT22;64022;53.652;9.792;2024-02-04T09:52:29;20.60;44.60
30244;DHT22;64022;53.652;9.792;2024-02-04T09:55:00;20.50;44.30
30244;DHT22;64022;53.652;9.792;2024-02-04T09:57:30;20.40;44.10
30244;DHT22;64022;53.652;9.792;2024-02-04T09:59:56;20.30;44.70
30244;DHT22;64022;53.652;9.792;2024-02-04T10:02:24;20.40;45.30
30244;DHT22;64022;53.652;9.792;2024-02-04T10:04:52;20.40;45.80
30244;DHT22;64022;53.652;9.792;2024-02-04T10:07:18;20.50;46.10
30244;DHT22;64022;53.652;9.792;2024-02-04T10:09:46;20.60;46.40
30244;DHT22;64022;53.652;9.792;2024-02-04T10:12:14;20.70;46.60
30244;DHT22;64022;53.652;9.792;2024-02-04T10:14:41;20.70;46.80
30244;DHT22;64022;53.652;9.792;2024-02-04T10:17:08;20.80;46.90
30244;DHT22;64022;53.652;9.792;2024-02-04T10:19:34;20.90;47.10
30244;DHT22;64022;53.652;9.792;2024-02-04T10:22:02;20.90;47.20
30244;DHT22;64022;53.652;9.792;2024-02-04T10:24:29;21.00;47.30
30244;DHT22;64022;53.652;9.792;2024-02-04T10:26:58;21.00;47.40
30244;DHT22;64022;53.652;9.792;2024-02-04T10:29:24;21.10;47.50
30244;DHT22;64022;53.652;9.792;2024-02-04T10:31:54;21.10;47.50
30244;DHT22;64022;53.652;9.792;2024-02-04T10:34:21;21.10;47.60
30244;DHT22;64022;53.652;9.792;2024-02-04T10:36:48;21.20;47.70
30244;DHT22;64022;53.652;9.792;2024-02-04T10:39:16;21.20;47.70
30244;DHT22;64022;53.652;9.792;2024-02-04T10:41:51;21.20;47.70
30244;DHT22;64022;53.652;9.792;2024-02-04T10:44:23;21.30;47.80
30244;DHT22;64022;53.652;9.792;2024-02-04T10:46:51;21.30;47.90
30244;DHT22;64022;53.652;9.792;2024-02-04T10:49:20;21.30;47.90
30244;DHT22;64022;53.652;9.792;2024-02-04T10:51:45;21.30;48.00
30244;DHT22;64022;53.652;9.792;2024-02-04T10:54:15;21.40;48.10
30244;DHT22;64022;53.652;9.792;2024-02-04T10:56:46;21.40;48.10
30244;DHT22;64022;53.652;9.792;2024-02-04T10:59:16;21.40;48.20
30244;DHT22;64022;53.652;9.792;2024-02-04T11:01:44;21.50;48.40
30244;DHT22;64022;53.652;9.792;2024-02-04T11:04:12;21.50;48.50
30244;DHT22;64022;53.652;9.792;2024-02-04T11:06:40;21.50;48.50
30244;DHT22;64022;53.652;9.792;2024-02-04T11:09:11;21.60;48.60
30244;DHT22;64022;53.652;9.792;2024-02-04T11:11:37;21.60;48.60
30244;DHT22;64022;53.652;9.792;2024-02-04T11:14:04;21.60;48.60
30244;DHT22;64022;53.652;9.792;2024-02-04T11:19:56;21.60;48.60
30244;DHT22;64022;53.652;9.792;2024-02-04T11:22:07;21.70;48.70
30244;DHT22;64022;53.652;9.792;2024-02-04T11:24:43;21.70;48.70
30244;DHT22;64022;53.652;9.792;2024-02-04T11:27:15;21.70;48.70
30244;DHT22;64022;53.652;9.792;2024-02-04T11:29:41;21.70;48.80
30244;DHT22;64022;53.652;9.792;2024-02-04T11:32:09;21.70;48.80
30244;DHT22;64022;53.652;9.792;2024-02-04T11:34:37;21.70;48.80
30244;DHT22;64022;53.652;9.792;2024-02-04T11:37:15;21.70;48.80
30244;DHT22;64022;53.652;9.792;2024-02-04T11:39:47;21.80;48.90
30244;DHT22;64022;53.652;9.792;2024-02-04T11:42:15;21.80;48.90
30244;DHT22;64022;53.652;9.792;2024-02-04T11:44:46;21.80;49.00
30244;DHT22;64022;53.652;9.792;2024-02-04T11:47:23;21.80;49.00
30244;DHT22;64022;53.652;9.792;2024-02-04T11:49:56;21.80;49.00
30244;DHT22;64022;53.652;9.792;2024-02-04T11:52:27;21.80;49.00
30244;DHT22;64022;53.652;9.792;2024-02-04T11:54:54;21.80;49.00
30244;DHT22;64022;53.652;9.792;2024-02-04T11:57:21;21.80;49.00
30244;DHT22;64022;53.652;9.792;2024-02-04T11:59:48;21.80;49.10
30244;DHT22;64022;53.652;9.792;2024-02-04T12:02:16;21.90;49.20
30244;DHT22;64022;53.652;9.792;2024-02-04T12:04:44;21.90;49.20
30244;DHT22;64022;53.652;9.792;2024-02-04T12:07:14;21.90;49.20
30244;DHT22;64022;53.652;9.792;2024-02-04T12:09:42;21.90;49.20
30244;DHT22;64022;53.652;9.792;2024-02-04T12:12:11;21.90;49.20
30244;DHT22;64022;53.652;9.792;2024-02-04T12:14:36;21.90;49.20
30244;DHT22;64022;53.652;9.792;2024-02-04T12:17:09;21.90;49.20
30244;DHT22;64022;53.652;9.792;2024-02-04T12:19:39;21.90;49.30
30244;DHT22;64022;53.652;9.792;2024-02-04T12:22:06;21.90;49.30
30244;DHT22;64022;53.652;9.792;2024-02-04T12:24:39;22.00;49.40
30244;DHT22;64022;53.652;9.792;2024-02-04T12:27:06;22.00;49.40
30244;DHT22;64022;53.652;9.792;2024-02-04T12:29:38;22.00;49.40
30244;DHT22;64022;53.652;9.792;2024-02-04T12:32:09;22.00;49.40
30244;DHT22;64022;53.652;9.792;2024-02-04T12:34:35;22.00;49.50
30244;DHT22;64022;53.652;9.792;2024-02-04T12:37:03;22.00;49.50
30244;DHT22;64022;53.652;9.792;2024-02-04T12:39:29;22.00;49.50
30244;DHT22;64022;53.652;9.792;2024-02-04T12:42:00;22.00;49.50
30244;DHT22;64022;53.652;9.792;2024-02-04T12:44:30;22.00;49.60
30244;DHT22;64022;53.652;9.792;2024-02-04T12:46:56;22.00;49.60
30244;DHT22;64022;53.652;9.792;2024-02-04T12:49:24;22.00;49.60
30244;DHT22;64022;53.652;9.792;2024-02-04T12:51:51;22.00;49.70
30244;DHT22;64022;53.652;9.792;2024-02-04T12:54:22;22.00;49.70
30244;DHT22;64022;53.652;9.792;2024-02-04T12:56:49;22.00;49.70
30244;DHT22;64022;53.652;9.792;2024-02-04T13:01:54;22.10;49.80
30244;DHT22;64022;53.652;9.792;2024-02-04T13:04:21;22.00;49.80
30244;DHT22;64022;53.652;9.792;2024-02-04T13:06:48;22.00;49.80
30244;DHT22;64022;53.652;9.792;2024-02-04T13:09:17;22.10;49.90
30244;DHT22;64022;53.652;9.792;2024-02-04T13:11:43;22.00;49.90
30244;DHT22;64022;53.652;9.792;2024-02-04T13:14:10;22.00;50.00
30244;DHT22;64022;53.652;9.792;2024-02-04T13:16:36;22.10;50.00
30244;DHT22;64022;53.652;9.792;2024-02-04T13:19:04;22.10;50.10
30244;DHT22;64022;53.652;9.792;2024-02-04T13:21:30;22.10;50.20
30244;DHT22;64022;53.652;9.792;2024-02-04T13:23:56;22.10;50.10
30244;DHT22;64022;53.652;9.792;2024-02-04T13:26:26;22.10;50.20
30244;DHT22;64022;53.652;9.792;2024-02-04T13:28:55;22.10;50.30
30244;DHT22;64022;53.652;9.792;2024-02-04T13:31:21;22.10;50.30
30244;DHT22;64022;53.652;9.792;2024-02-04T13:33:48;22.10;50.30
30244;DHT22;64022;53.652;9.792;2024-02-04T13:36:16;22.10;50.40
30244;DHT22;64022;53.652;9.792;2024-02-04T13:38:45;22.10;50.40
30244;DHT22;64022;53.652;9.792;2024-02-04T13:41:11;22.10;50.50
30244;DHT22;64022;53.652;9.792;2024-02-04T13:43:39;22.10;50.50
30244;DHT22;64022;53.652;9.792;2024-02-04T13:46:05;22.10;50.10
30244;DHT22;64022;53.652;9.792;2024-02-04T13:48:34;21.90;48.50
30244;DHT22;64022;53.652;9.792;2024-02-04T13:51:01;21.80;47.50
30244;DHT22;64022;53.652;9.792;2024-02-04T13:53:28;21.60;47.70
30244;DHT22;64022;53.652;9.792;2024-02-04T13:55:55;21.50;47.40
30244;DHT22;64022;53.652;9.792;2024-02-04T13:58:21;21.40;47.70
30244;DHT22;64022;53.652;9.792;2024-02-04T14:00:52;21.40;47.90
30244;DHT22;64022;53.652;9.792;2024-02-04T14:03:20;21.40;48.10
30244;DHT22;64022;53.652;9.792;2024-02-04T14:05:50;21.50;48.30
30244;DHT22;64022;53.652;9.792;2024-02-04T14:08:16;21.50;48.40
30244;DHT22;64022;53.652;9.792;2024-02-04T14:10:42;21.60;48.50
30244;DHT22;64022;53.652;9.792;2024-02-04T14:13:08;21.60;48.60
30244;DHT22;64022;53.652;9.792;2024-02-04T14:15:34;21.60;48.60
30244;DHT22;64022;53.652;9.792;2024-02-04T14:18:01;21.60;48.70
30244;DHT22;64022;53.652;9.792;2024-02-04T14:20:27;21.60;48.70
30244;DHT22;64022;53.652;9.792;2024-02-04T14:22:55;21.60;48.80
30244;DHT22;64022;53.652;9.792;2024-02-04T14:25:24;21.70;48.90
30244;DHT22;64022;53.652;9.792;2024-02-04T14:27:50;21.70;48.90
30244;DHT22;64022;53.652;9.792;2024-02-04T14:30:20;21.70;49.00
30244;DHT22;64022;53.652;9.792;2024-02-04T14:32:48;21.70;49.00
30244;DHT22;64022;53.652;9.792;2024-02-04T14:35:14;21.70;49.10
30244;DHT22;64022;53.652;9.792;2024-02-04T14:37:43;21.70;49.20
30244;DHT22;64022;53.652;9.792;2024-02-04T14:40:10;21.70;49.20
30244;DHT22;64022;53.652;9.792;2024-02-04T14:42:36;21.80;49.30
30244;DHT22;64022;53.652;9.792;2024-02-04T14:45:03;21.80;49.30
30244;DHT22;64022;53.652;9.792;2024-02-04T14:47:34;21.80;49.40
30244;DHT22;64022;53.652;9.792;2024-02-04T14:50:00;21.70;49.40
30244;DHT22;64022;53.652;9.792;2024-02-04T14:52:28;21.80;49.50
30244;DHT22;64022;53.652;9.792;2024-02-04T14:54:56;21.80;49.50
30244;DHT22;64022;53.652;9.792;2024-02-04T14:57:21;21.80;49.50
30244;DHT22;64022;53.652;9.792;2024-02-04T14:59:47;21.80;49.60
30244;DHT22;64022;53.652;9.792;2024-02-04T15:02:13;21.80;49.60
30244;DHT22;64022;53.652;9.792;2024-02-04T15:04:41;21.80;49.70
30244;DHT22;64022;53.652;9.792;2024-02-04T15:07:09;21.80;49.80
30244;DHT22;64022;53.652;9.792;2024-02-04T15:09:38;21.80;49.80
30244;DHT22;64022;53.652;9.792;2024-02-04T15:12:04;21.90;50.00
30244;DHT22;64022;53.652;9.792;2024-02-04T15:14:30;21.80;50.00
30244;DHT22;64022;53.652;9.792;2024-02-04T15:16:56;21.80;50.00
30244;DHT22;64022;53.652;9.792;2024-02-04T15:19:26;21.90;50.10
30244;DHT22;64022;53.652;9.792;2024-02-04T15:21:52;21.90;50.20
30244;DHT22;64022;53.652;9.792;2024-02-04T15:24:19;21.90;50.30
30244;DHT22;64022;53.652;9.792;2024-02-04T15:26:45;21.80;50.30
30244;DHT22;64022;53.652;9.792;2024-02-04T15:29:14;21.90;50.40
30244;DHT22;64022;53.652;9.792;2024-02-04T15:31:44;21.90;50.50
30244;DHT22;64022;53.652;9.792;2024-02-04T15:34:12;21.90;50.50
30244;DHT22;64022;53.652;9.792;2024-02-04T15:36:41;21.80;50.50
30244;DHT22;64022;53.652;9.792;2024-02-04T15:39:09;21.80;50.60
30244;DHT22;64022;53.652;9.792;2024-02-04T15:41:37;21.90;50.70